sensor_id;sensor_type;location;lat;lon;timestamp;P1;durP1;ratioP1;P2;durP2;ratioP2
2211;SDS011;48849;48.758;9.158;2023-07-09T00:02:12;5.33;;;4.80;;
2211;SDS011;48849;48.758;9.158;2023-07-09T00:04:39;5.90;;;4.90;;
2211;SDS011;48849;48.758;9.158;2023-07-09T00:07:11;5.57;;;4.10;;
2211;SDS011;48849;48.758;9.158;2023-07-09T00:09:44;5.77;;;4.63;;
2211;SDS011;48849;48.758;9.158;2023-07-09T00:12:12;5.17;;;4.50;;
2211;SDS011;48849;48.758;9.158;2023-07-09T00:14:40;6.87;;;5.30;;
2211;SDS011;48849;48.758;9.158;2023-07-09T00:17:08;6.03;;;4.70;;
2211;SDS011;48849;48.758;9.158;2023-07-09T00:19:36;8.63;;;5.17;;
2211;SDS011;48849;48.758;9.158;2023-07-09T00:22:04;11.53;;;4.97;;
2211;SDS011;48849;48.758;9.158;2023-07-09T00:24:41;8.03;;;4.40;;
2211;SDS011;48849;48.758;9.158;2023-07-09T00:27:09;5.43;;;4.73;;
2211;SDS011;48849;48.758;9.158;2023-07-09T00:29:36;7.53;;;4.50;;
2211;SDS011;48849;48.758;9.158;2023-07-09T00:32:04;6.73;;;4.90;;
2211;SDS011;48849;48.758;9.158;2023-07-09T00:34:34;6.23;;;4.80;;
2211;SDS011;48849;48.758;9.158;2023-07-09T00:37:02;8.33;;;4.70;;
2211;SDS011;48849;48.758;9.158;2023-07-09T00:39:30;5.30;;;4.80;;
2211;SDS011;48849;48.758;9.158;2023-07-09T00:41:57;6.60;;;4.67;;
2211;SDS011;48849;48.758;9.158;2023-07-09T00:44:26;10.53;;;4.93;;
2211;SDS011;48849;48.758;9.158;2023-07-09T00:50:03;8.63;;;5.20;;
2211;SDS011;48849;48.758;9.158;2023-07-09T00:52:38;9.30;;;5.40;;
2211;SDS011;48849;48.758;9.158;2023-07-09T00:55:12;8.67;;;5.13;;
2211;SDS011;48849;48.758;9.158;2023-07-09T00:57:43;5.60;;;5.03;;
2211;SDS011;48849;48.758;9.158;2023-07-09T01:00:21;6.53;;;5.47;;
2211;SDS011;48849;48.758;9.158;2023-07-09T01:02:50;6.37;;;5.17;;
2211;SDS011;48849;48.758;9.158;2023-07-09T01:05:17;7.50;;;4.93;;
2211;SDS011;48849;48.758;9.158;2023-07-09T01:07:45;5.20;;;4.63;;
2211;SDS011;48849;48.758;9.158;2023-07-09T01:10:14;5.47;;;4.97;;
2211;SDS011;48849;48.758;9.158;2023-07-09T01:12:43;6.47;;;4.10;;
2211;SDS011;48849;48.758;9.158;2023-07-09T01:15:11;5.93;;;4.90;;
2211;SDS011;48849;48.758;9.158;2023-07-09T01:17:40;5.93;;;5.10;;
2211;SDS011;48849;48.758;9.158;2023-07-09T01:20:14;5.37;;;4.27;;
2211;SDS011;48849;48.758;9.158;2023-07-09T01:22:43;5.00;;;4.37;;
2211;SDS011;48849;48.758;9.158;2023-07-09T01:25:14;7.37;;;5.20;;
2211;SDS011;48849;48.758;9.158;2023-07-09T01:27:42;4.30;;;3.57;;
2211;SDS011;48849;48.758;9.158;2023-07-09T01:30:11;6.00;;;5.10;;
2211;SDS011;48849;48.758;9.158;2023-07-09T01:32:40;7.03;;;4.40;;
2211;SDS011;48849;48.758;9.158;2023-07-09T01:35:11;6.43;;;4.20;;
2211;SDS011;48849;48.758;9.158;2023-07-09T01:37:40;5.40;;;4.87;;
2211;SDS011;48849;48.758;9.158;2023-07-09T01:40:11;6.27;;;4.93;;
2211;SDS011;48849;48.758;9.158;2023-07-09T01:42:40;4.80;;;4.30;;
2211;SDS011;48849;48.758;9.158;2023-07-09T01:45:08;7.30;;;5.00;;
2211;SDS011;48849;48.758;9.158;2023-07-09T01:47:36;5.47;;;4.00;;
2211;SDS011;48849;48.758;9.158;2023-07-09T01:50:03;6.30;;;4.63;;
2211;SDS011;48849;48.758;9.158;2023-07-09T01:52:31;6.13;;;5.03;;
2211;SDS011;48849;48.758;9.158;2023-07-09T01:54:59;7.30;;;4.80;;
2211;SDS011;48849;48.758;9.158;2023-07-09T01:57:29;4.70;;;4.20;;
2211;SDS011;48849;48.758;9.158;2023-07-09T02:00:00;7.30;;;4.40;;
2211;SDS011;48849;48.758;9.158;2023-07-09T02:02:30;5.53;;;4.57;;
2211;SDS011;48849;48.758;9.158;2023-07-09T02:04:57;5.20;;;4.37;;
2211;SDS011;48849;48.758;9.158;2023-07-09T02:07:24;5.27;;;4.60;;
2211;SDS011;48849;48.758;9.158;2023-07-09T02:09:51;5.90;;;4.63;;
2211;SDS011;48849;48.758;9.158;2023-07-09T02:12:18;5.93;;;4.20;;
2211;SDS011;48849;48.758;9.158;2023-07-09T02:14:46;6.70;;;4.20;;
2211;SDS011;48849;48.758;9.158;2023-07-09T02:17:14;5.93;;;4.70;;
2211;SDS011;48849;48.758;9.158;2023-07-09T02:19:41;7.00;;;4.30;;
2211;SDS011;48849;48.758;9.158;2023-07-09T02:22:08;5.77;;;4.27;;
2211;SDS011;48849;48.758;9.158;2023-07-09T02:24:36;6.43;;;4.67;;
2211;SDS011;48849;48.758;9.158;2023-07-09T02:27:04;5.07;;;4.10;;
2211;SDS011;48849;48.758;9.158;2023-07-09T02:29:33;6.60;;;4.50;;
2211;SDS011;48849;48.758;9.158;2023-07-09T02:32:01;7.07;;;4.63;;
2211;SDS011;48849;48.758;9.158;2023-07-09T02:34:29;4.77;;;4.27;;
2211;SDS011;48849;48.758;9.158;2023-07-09T02:36:57;6.20;;;4.37;;
2211;SDS011;48849;48.758;9.158;2023-07-09T02:39:25;5.43;;;4.27;;
2211;SDS011;48849;48.758;9.158;2023-07-09T02:41:52;7.90;;;4.10;;
2211;SDS011;48849;48.758;9.158;2023-07-09T02:44:19;5.27;;;4.77;;
2211;SDS011;48849;48.758;9.158;2023-07-09T02:46:46;4.67;;;4.17;;
2211;SDS011;48849;48.758;9.158;2023-07-09T02:49:14;5.63;;;4.30;;
2211;SDS011;48849;48.758;9.158;2023-07-09T02:51:41;7.87;;;4.90;;
2211;SDS011;48849;48.758;9.158;2023-07-09T02:54:26;8.23;;;5.43;;
2211;SDS011;48849;48.758;9.158;2023-07-09T02:56:53;5.80;;;4.23;;
2211;SDS011;48849;48.758;9.158;2023-07-09T02:59:20;4.90;;;4.30;;
2211;SDS011;48849;48.758;9.158;2023-07-09T03:01:47;6.83;;;4.67;;
2211;SDS011;48849;48.758;9.158;2023-07-09T03:04:15;6.97;;;4.30;;
2211;SDS011;48849;48.758;9.158;2023-07-09T03:06:45;6.40;;;4.30;;
2211;SDS011;48849;48.758;9.158;2023-07-09T03:09:12;6.00;;;4.30;;
2211;SDS011;48849;48.758;9.158;2023-07-09T03:11:39;5.07;;;4.23;;
2211;SDS011;48849;48.758;9.158;2023-07-09T03:14:06;4.73;;;4.03;;
2211;SDS011;48849;48.758;9.158;2023-07-09T03:16:33;6.63;;;4.83;;
2211;SDS011;48849;48.758;9.158;2023-07-09T03:19:00;7.20;;;4.33;;
2211;SDS011;48849;48.758;9.158;2023-07-09T03:21:30;4.63;;;3.90;;
2211;SDS011;48849;48.758;9.158;2023-07-09T03:23:58;8.80;;;4.63;;
2211;SDS011;48849;48.758;9.158;2023-07-09T03:26:25;5.73;;;4.20;;
2211;SDS011;48849;48.758;9.158;2023-07-09T03:28:53;7.60;;;5.00;;
2211;SDS011;48849;48.758;9.158;2023-07-09T03:31:20;6.40;;;4.60;;
2211;SDS011;48849;48.758;9.158;2023-07-09T03:33:47;5.97;;;5.00;;
2211;SDS011;48849;48.758;9.158;2023-07-09T03:36:14;6.33;;;4.90;;
2211;SDS011;48849;48.758;9.158;2023-07-09T03:38:43;8.30;;;5.27;;
2211;SDS011;48849;48.758;9.158;2023-07-09T03:41:09;5.60;;;5.10;;
2211;SDS011;48849;48.758;9.158;2023-07-09T03:43:36;7.33;;;5.00;;
2211;SDS011;48849;48.758;9.158;2023-07-09T03:46:03;6.30;;;5.17;;
2211;SDS011;48849;48.758;9.158;2023-07-09T03:48:29;7.80;;;4.73;;
2211;SDS011;48849;48.758;9.158;2023-07-09T03:50:56;7.67;;;5.40;;
2211;SDS011;48849;48.758;9.158;2023-07-09T03:53:23;7.00;;;5.00;;
2211;SDS011;48849;48.758;9.158;2023-07-09T03:55:53;12.77;;;6.27;;
2211;SDS011;48849;48.758;9.158;2023-07-09T03:58:21;9.97;;;7.97;;
2211;SDS011;48849;48.758;9.158;2023-07-09T04:00:48;10.30;;;6.83;;
2211;SDS011;48849;48.758;9.158;2023-07-09T04:03:15;8.60;;;6.03;;
2211;SDS011;48849;48.758;9.158;2023-07-09T04:05:42;6.77;;;5.37;;
2211;SDS011;48849;48.758;9.158;2023-07-09T04:08:08;6.47;;;5.00;;
2211;SDS011;48849;48.758;9.158;2023-07-09T04:10:35;5.10;;;4.60;;
2211;SDS011;48849;48.758;9.158;2023-07-09T04:13:03;7.10;;;5.30;;
2211;SDS011;48849;48.758;9.158;2023-07-09T04:15:30;6.40;;;4.83;;
2211;SDS011;48849;48.758;9.158;2023-07-09T04:17:57;8.80;;;4.77;;
2211;SDS011;48849;48.758;9.158;2023-07-09T04:20:23;8.40;;;4.70;;
2211;SDS011;48849;48.758;9.158;2023-07-09T04:22:50;6.90;;;5.60;;
2211;SDS011;48849;48.758;9.158;2023-07-09T04:25:17;8.20;;;5.50;;
2211;SDS011;48849;48.758;9.158;2023-07-09T04:27:44;7.90;;;5.43;;
2211;SDS011;48849;48.758;9.158;2023-07-09T04:30:13;6.87;;;5.37;;
2211;SDS011;48849;48.758;9.158;2023-07-09T04:32:41;7.60;;;5.57;;
2211;SDS011;48849;48.758;9.158;2023-07-09T04:35:09;7.90;;;5.23;;
2211;SDS011;48849;48.758;9.158;2023-07-09T04:37:36;5.50;;;4.60;;
2211;SDS011;48849;48.758;9.158;2023-07-09T04:40:04;8.50;;;5.10;;
2211;SDS011;48849;48.758;9.158;2023-07-09T04:42:32;6.00;;;5.40;;
2211;SDS011;48849;48.758;9.158;2023-07-09T04:44:59;7.70;;;4.80;;
2211;SDS011;48849;48.758;9.158;2023-07-09T04:47:27;6.00;;;5.10;;
2211;SDS011;48849;48.758;9.158;2023-07-09T04:49:54;5.27;;;4.53;;
2211;SDS011;48849;48.758;9.158;2023-07-09T04:52:20;11.63;;;5.40;;
2211;SDS011;48849;48.758;9.158;2023-07-09T04:54:47;6.70;;;4.50;;
2211;SDS011;48849;48.758;9.158;2023-07-09T04:57:15;9.50;;;5.20;;
2211;SDS011;48849;48.758;9.158;2023-07-09T04:59:42;7.23;;;5.10;;
2211;SDS011;48849;48.758;9.158;2023-07-09T05:02:09;6.33;;;4.80;;
2211;SDS011;48849;48.758;9.158;2023-07-09T05:04:38;6.40;;;4.93;;
2211;SDS011;48849;48.758;9.158;2023-07-09T05:07:05;7.73;;;5.33;;
2211;SDS011;48849;48.758;9.158;2023-07-09T05:09:32;8.07;;;5.23;;
2211;SDS011;48849;48.758;9.158;2023-07-09T05:12:01;6.80;;;4.87;;
2211;SDS011;48849;48.758;9.158;2023-07-09T05:14:28;6.63;;;5.20;;
2211;SDS011;48849;48.758;9.158;2023-07-09T05:16:54;5.07;;;4.57;;
2211;SDS011;48849;48.758;9.158;2023-07-09T05:19:21;7.37;;;5.33;;
2211;SDS011;48849;48.758;9.158;2023-07-09T05:21:49;7.80;;;5.50;;
2211;SDS011;48849;48.758;9.158;2023-07-09T05:24:16;6.30;;;5.00;;
2211;SDS011;48849;48.758;9.158;2023-07-09T05:26:43;9.30;;;5.70;;
2211;SDS011;48849;48.758;9.158;2023-07-09T05:29:09;7.37;;;5.00;;
2211;SDS011;48849;48.758;9.158;2023-07-09T05:31:36;5.70;;;5.13;;
2211;SDS011;48849;48.758;9.158;2023-07-09T05:34:03;5.50;;;4.57;;
2211;SDS011;48849;48.758;9.158;2023-07-09T05:36:30;6.60;;;4.67;;
2211;SDS011;48849;48.758;9.158;2023-07-09T05:38:58;6.77;;;5.27;;
2211;SDS011;48849;48.758;9.158;2023-07-09T05:41:24;6.63;;;4.60;;
2211;SDS011;48849;48.758;9.158;2023-07-09T05:43:51;5.67;;;5.13;;
2211;SDS011;48849;48.758;9.158;2023-07-09T05:46:18;8.77;;;5.60;;
2211;SDS011;48849;48.758;9.158;2023-07-09T05:48:47;6.80;;;5.43;;
2211;SDS011;48849;48.758;9.158;2023-07-09T05:51:14;6.07;;;5.20;;
2211;SDS011;48849;48.758;9.158;2023-07-09T05:53:41;6.50;;;5.00;;
2211;SDS011;48849;48.758;9.158;2023-07-09T05:56:09;6.90;;;5.23;;
2211;SDS011;48849;48.758;9.158;2023-07-09T05:58:36;6.27;;;4.57;;
2211;SDS011;48849;48.758;9.158;2023-07-09T06:01:03;10.10;;;4.63;;
2211;SDS011;48849;48.758;9.158;2023-07-09T06:03:30;5.10;;;4.60;;
2211;SDS011;48849;48.758;9.158;2023-07-09T06:05:58;7.70;;;4.90;;
2211;SDS011;48849;48.758;9.158;2023-07-09T06:08:25;5.87;;;4.87;;
2211;SDS011;48849;48.758;9.158;2023-07-09T06:10:53;8.50;;;5.40;;
2211;SDS011;48849;48.758;9.158;2023-07-09T06:13:23;10.63;;;5.17;;
2211;SDS011;48849;48.758;9.158;2023-07-09T06:15:51;5.57;;;5.00;;
2211;SDS011;48849;48.758;9.158;2023-07-09T06:18:19;5.60;;;5.00;;
2211;SDS011;48849;48.758;9.158;2023-07-09T06:20:46;6.70;;;5.17;;
2211;SDS011;48849;48.758;9.158;2023-07-09T06:23:14;5.40;;;4.63;;
2211;SDS011;48849;48.758;9.158;2023-07-09T06:25:41;6.10;;;4.77;;
2211;SDS011;48849;48.758;9.158;2023-07-09T06:28:08;5.60;;;5.00;;
2211;SDS011;48849;48.758;9.158;2023-07-09T06:30:37;6.43;;;4.90;;
2211;SDS011;48849;48.758;9.158;2023-07-09T06:33:03;5.57;;;5.07;;
2211;SDS011;48849;48.758;9.158;2023-07-09T06:35:30;5.90;;;4.70;;
2211;SDS011;48849;48.758;9.158;2023-07-09T06:37:57;5.33;;;4.83;;
2211;SDS011;48849;48.758;9.158;2023-07-09T06:40:24;6.33;;;5.60;;
2211;SDS011;48849;48.758;9.158;2023-07-09T06:42:50;7.60;;;5.73;;
2211;SDS011;48849;48.758;9.158;2023-07-09T06:45:17;6.60;;;5.10;;
2211;SDS011;48849;48.758;9.158;2023-07-09T06:47:45;7.20;;;5.70;;
2211;SDS011;48849;48.758;9.158;2023-07-09T06:50:14;5.50;;;4.67;;
2211;SDS011;48849;48.758;9.158;2023-07-09T06:52:41;7.13;;;5.20;;
2211;SDS011;48849;48.758;9.158;2023-07-09T06:55:08;6.33;;;4.70;;
2211;SDS011;48849;48.758;9.158;2023-07-09T06:57:35;8.20;;;5.50;;
2211;SDS011;48849;48.758;9.158;2023-07-09T07:00:02;5.70;;;4.73;;
2211;SDS011;48849;48.758;9.158;2023-07-09T07:02:30;6.10;;;4.70;;
2211;SDS011;48849;48.758;9.158;2023-07-09T07:04:58;6.80;;;5.40;;
2211;SDS011;48849;48.758;9.158;2023-07-09T07:07:24;6.07;;;5.27;;
2211;SDS011;48849;48.758;9.158;2023-07-09T07:09:51;5.07;;;4.57;;
2211;SDS011;48849;48.758;9.158;2023-07-09T07:12:25;7.13;;;5.37;;
2211;SDS011;48849;48.758;9.158;2023-07-09T07:14:52;5.70;;;4.93;;
2211;SDS011;48849;48.758;9.158;2023-07-09T07:17:20;5.90;;;4.93;;
2211;SDS011;48849;48.758;9.158;2023-07-09T07:19:46;6.30;;;5.70;;
2211;SDS011;48849;48.758;9.158;2023-07-09T07:22:15;6.57;;;5.60;;
2211;SDS011;48849;48.758;9.158;2023-07-09T07:24:41;8.03;;;5.73;;
2211;SDS011;48849;48.758;9.158;2023-07-09T07:27:08;6.60;;;5.07;;
2211;SDS011;48849;48.758;9.158;2023-07-09T07:29:35;5.77;;;4.70;;
2211;SDS011;48849;48.758;9.158;2023-07-09T07:32:02;7.30;;;5.50;;
2211;SDS011;48849;48.758;9.158;2023-07-09T07:34:29;6.37;;;5.77;;
2211;SDS011;48849;48.758;9.158;2023-07-09T07:36:55;8.80;;;7.20;;
2211;SDS011;48849;48.758;9.158;2023-07-09T07:39:24;6.53;;;5.90;;
2211;SDS011;48849;48.758;9.158;2023-07-09T07:41:50;11.27;;;10.00;;
2211;SDS011;48849;48.758;9.158;2023-07-09T07:44:17;8.80;;;7.90;;
2211;SDS011;48849;48.758;9.158;2023-07-09T07:46:44;11.77;;;10.57;;
2211;SDS011;48849;48.758;9.158;2023-07-09T07:49:11;10.53;;;9.57;;
2211;SDS011;48849;48.758;9.158;2023-07-09T07:51:38;12.57;;;11.27;;
2211;SDS011;48849;48.758;9.158;2023-07-09T07:54:05;13.57;;;10.60;;
2211;SDS011;48849;48.758;9.158;2023-07-09T07:56:35;11.13;;;10.13;;
2211;SDS011;48849;48.758;9.158;2023-07-09T07:59:01;14.40;;;10.73;;
2211;SDS011;48849;48.758;9.158;2023-07-09T08:01:28;11.10;;;10.00;;
2211;SDS011;48849;48.758;9.158;2023-07-09T08:03:56;12.37;;;9.80;;
2211;SDS011;48849;48.758;9.158;2023-07-09T08:06:22;9.33;;;8.43;;
2211;SDS011;48849;48.758;9.158;2023-07-09T08:08:49;9.50;;;7.80;;
2211;SDS011;48849;48.758;9.158;2023-07-09T08:11:16;7.50;;;6.73;;
2211;SDS011;48849;48.758;9.158;2023-07-09T08:13:44;8.60;;;6.77;;
2211;SDS011;48849;48.758;9.158;2023-07-09T08:16:11;9.37;;;6.77;;
2211;SDS011;48849;48.758;9.158;2023-07-09T08:18:38;7.97;;;5.80;;
2211;SDS011;48849;48.758;9.158;2023-07-09T08:21:05;5.83;;;5.33;;
2211;SDS011;48849;48.758;9.158;2023-07-09T08:23:31;6.30;;;5.67;;
2211;SDS011;48849;48.758;9.158;2023-07-09T08:25:59;8.10;;;5.30;;
2211;SDS011;48849;48.758;9.158;2023-07-09T08:28:28;4.73;;;4.33;;
2211;SDS011;48849;48.758;9.158;2023-07-09T08:30:56;6.97;;;5.10;;
2211;SDS011;48849;48.758;9.158;2023-07-09T08:33:23;6.10;;;5.00;;
2211;SDS011;48849;48.758;9.158;2023-07-09T08:35:51;6.47;;;5.10;;
2211;SDS011;48849;48.758;9.158;2023-07-09T08:38:19;5.93;;;5.37;;
2211;SDS011;48849;48.758;9.158;2023-07-09T08:40:49;5.07;;;4.57;;
2211;SDS011;48849;48.758;9.158;2023-07-09T08:43:27;5.80;;;5.30;;
2211;SDS011;48849;48.758;9.158;2023-07-09T08:46:03;7.40;;;5.13;;
2211;SDS011;48849;48.758;9.158;2023-07-09T08:48:37;5.87;;;5.37;;
2211;SDS011;48849;48.758;9.158;2023-07-09T08:51:09;7.67;;;6.90;;
2211;SDS011;48849;48.758;9.158;2023-07-09T08:53:41;21.53;;;10.40;;
2211;SDS011;48849;48.758;9.158;2023-07-09T08:56:12;56.93;;;16.40;;
2211;SDS011;48849;48.758;9.158;2023-07-09T08:58:40;43.37;;;14.00;;
2211;SDS011;48849;48.758;9.158;2023-07-09T09:01:14;33.03;;;18.03;;
2211;SDS011;48849;48.758;9.158;2023-07-09T09:03:46;22.20;;;14.93;;
2211;SDS011;48849;48.758;9.158;2023-07-09T09:06:17;16.57;;;11.27;;
2211;SDS011;48849;48.758;9.158;2023-07-09T09:08:48;14.43;;;12.87;;
2211;SDS011;48849;48.758;9.158;2023-07-09T09:11:23;19.90;;;17.00;;
2211;SDS011;48849;48.758;9.158;2023-07-09T09:13:58;22.27;;;19.10;;
2211;SDS011;48849;48.758;9.158;2023-07-09T09:16:35;23.93;;;19.20;;
2211;SDS011;48849;48.758;9.158;2023-07-09T09:19:06;30.40;;;23.47;;
2211;SDS011;48849;48.758;9.158;2023-07-09T09:21:44;20.17;;;17.33;;
2211;SDS011;48849;48.758;9.158;2023-07-09T09:24:13;17.10;;;14.10;;
2211;SDS011;48849;48.758;9.158;2023-07-09T09:26:42;14.83;;;12.97;;
2211;SDS011;48849;48.758;9.158;2023-07-09T09:29:11;10.10;;;8.37;;
2211;SDS011;48849;48.758;9.158;2023-07-09T09:31:40;9.07;;;8.03;;
2211;SDS011;48849;48.758;9.158;2023-07-09T09:34:16;7.77;;;6.97;;
2211;SDS011;48849;48.758;9.158;2023-07-09T09:36:44;9.23;;;7.17;;
2211;SDS011;48849;48.758;9.158;2023-07-09T09:39:10;7.60;;;6.80;;
2211;SDS011;48849;48.758;9.158;2023-07-09T09:41:37;7.87;;;5.10;;
2211;SDS011;48849;48.758;9.158;2023-07-09T09:44:05;5.17;;;4.67;;
2211;SDS011;48849;48.758;9.158;2023-07-09T09:46:44;7.77;;;6.00;;
2211;SDS011;48849;48.758;9.158;2023-07-09T09:49:11;7.23;;;5.50;;
2211;SDS011;48849;48.758;9.158;2023-07-09T09:51:39;8.43;;;5.57;;
2211;SDS011;48849;48.758;9.158;2023-07-09T09:54:11;8.10;;;6.93;;
2211;SDS011;48849;48.758;9.158;2023-07-09T09:56:42;7.13;;;5.00;;
2211;SDS011;48849;48.758;9.158;2023-07-09T09:59:13;7.37;;;5.60;;
2211;SDS011;48849;48.758;9.158;2023-07-09T10:01:45;5.93;;;5.40;;
2211;SDS011;48849;48.758;9.158;2023-07-09T10:04:16;5.80;;;5.27;;
2211;SDS011;48849;48.758;9.158;2023-07-09T10:06:45;5.67;;;5.10;;
2211;SDS011;48849;48.758;9.158;2023-07-09T10:09:17;5.73;;;5.23;;
2211;SDS011;48849;48.758;9.158;2023-07-09T10:11:52;8.03;;;5.90;;
2211;SDS011;48849;48.758;9.158;2023-07-09T10:14:29;6.20;;;5.00;;
2211;SDS011;48849;48.758;9.158;2023-07-09T10:17:03;8.53;;;6.37;;
2211;SDS011;48849;48.758;9.158;2023-07-09T10:19:39;5.00;;;3.87;;
2211;SDS011;48849;48.758;9.158;2023-07-09T10:22:15;6.40;;;4.60;;
2211;SDS011;48849;48.758;9.158;2023-07-09T10:24:51;5.70;;;4.23;;
2211;SDS011;48849;48.758;9.158;2023-07-09T10:27:28;8.70;;;4.87;;
2211;SDS011;48849;48.758;9.158;2023-07-09T10:30:19;8.80;;;4.90;;
2211;SDS011;48849;48.758;9.158;2023-07-09T10:33:07;7.83;;;5.73;;
2211;SDS011;48849;48.758;9.158;2023-07-09T10:35:37;5.97;;;3.93;;
2211;SDS011;48849;48.758;9.158;2023-07-09T10:38:12;6.27;;;4.90;;
2211;SDS011;48849;48.758;9.158;2023-07-09T10:40:54;6.97;;;5.60;;
2211;SDS011;48849;48.758;9.158;2023-07-09T10:43:25;5.80;;;4.70;;
2211;SDS011;48849;48.758;9.158;2023-07-09T10:45:59;5.90;;;4.37;;
2211;SDS011;48849;48.758;9.158;2023-07-09T10:48:35;5.87;;;4.77;;
2211;SDS011;48849;48.758;9.158;2023-07-09T11:13:05;6.33;;;5.03;;
2211;SDS011;48849;48.758;9.158;2023-07-09T11:19:00;8.07;;;4.27;;
2211;SDS011;48849;48.758;9.158;2023-07-09T11:21:40;9.70;;;5.60;;
2211;SDS011;48849;48.758;9.158;2023-07-09T11:24:34;7.60;;;4.87;;
2211;SDS011;48849;48.758;9.158;2023-07-09T11:27:02;13.37;;;4.77;;
2211;SDS011;48849;48.758;9.158;2023-07-09T11:29:47;5.77;;;4.33;;
2211;SDS011;48849;48.758;9.158;2023-07-09T11:32:18;7.17;;;4.40;;
2211;SDS011;48849;48.758;9.158;2023-07-09T11:38:41;9.37;;;4.70;;
2211;SDS011;48849;48.758;9.158;2023-07-09T11:41:37;12.97;;;4.20;;
2211;SDS011;48849;48.758;9.158;2023-07-09T11:44:21;12.20;;;4.73;;
2211;SDS011;48849;48.758;9.158;2023-07-09T11:47:03;7.13;;;4.63;;
2211;SDS011;48849;48.758;9.158;2023-07-09T11:49:45;10.10;;;5.10;;
2211;SDS011;48849;48.758;9.158;2023-07-09T11:52:17;10.27;;;4.60;;
2211;SDS011;48849;48.758;9.158;2023-07-09T11:54:51;12.27;;;7.57;;
2211;SDS011;48849;48.758;9.158;2023-07-09T11:57:22;12.77;;;9.50;;
2211;SDS011;48849;48.758;9.158;2023-07-09T11:59:49;7.10;;;5.73;;
2211;SDS011;48849;48.758;9.158;2023-07-09T12:02:18;11.13;;;5.73;;
2211;SDS011;48849;48.758;9.158;2023-07-09T12:04:48;12.30;;;8.90;;
2211;SDS011;48849;48.758;9.158;2023-07-09T12:07:16;10.10;;;7.53;;
2211;SDS011;48849;48.758;9.158;2023-07-09T12:09:46;8.73;;;6.53;;
2211;SDS011;48849;48.758;9.158;2023-07-09T12:12:19;8.20;;;6.00;;
2211;SDS011;48849;48.758;9.158;2023-07-09T12:14:48;7.03;;;5.10;;
2211;SDS011;48849;48.758;9.158;2023-07-09T12:17:15;7.03;;;4.53;;
2211;SDS011;48849;48.758;9.158;2023-07-09T12:19:43;9.43;;;5.13;;
2211;SDS011;48849;48.758;9.158;2023-07-09T12:22:15;6.53;;;4.37;;
2211;SDS011;48849;48.758;9.158;2023-07-09T12:24:50;9.73;;;4.53;;
2211;SDS011;48849;48.758;9.158;2023-07-09T12:27:20;5.40;;;4.50;;
2211;SDS011;48849;48.758;9.158;2023-07-09T12:29:50;6.83;;;4.50;;
2211;SDS011;48849;48.758;9.158;2023-07-09T12:32:17;8.93;;;4.67;;
2211;SDS011;48849;48.758;9.158;2023-07-09T12:34:51;7.70;;;6.57;;
2211;SDS011;48849;48.758;9.158;2023-07-09T12:40:17;10.30;;;7.10;;
2211;SDS011;48849;48.758;9.158;2023-07-09T12:43:08;7.10;;;6.27;;
2211;SDS011;48849;48.758;9.158;2023-07-09T12:45:46;15.13;;;12.57;;
2211;SDS011;48849;48.758;9.158;2023-07-09T12:48:18;15.20;;;12.47;;
2211;SDS011;48849;48.758;9.158;2023-07-09T12:50:53;7.87;;;6.60;;
2211;SDS011;48849;48.758;9.158;2023-07-09T12:53:27;7.43;;;4.87;;
2211;SDS011;48849;48.758;9.158;2023-07-09T12:56:00;10.77;;;7.97;;
2211;SDS011;48849;48.758;9.158;2023-07-09T12:58:38;11.40;;;9.27;;
2211;SDS011;48849;48.758;9.158;2023-07-09T13:01:14;10.27;;;8.53;;
2211;SDS011;48849;48.758;9.158;2023-07-09T13:03:52;11.03;;;6.40;;
2211;SDS011;48849;48.758;9.158;2023-07-09T13:06:28;9.33;;;6.43;;
2211;SDS011;48849;48.758;9.158;2023-07-09T13:09:05;8.50;;;7.60;;
2211;SDS011;48849;48.758;9.158;2023-07-09T13:11:49;8.77;;;5.70;;
2211;SDS011;48849;48.758;9.158;2023-07-09T13:14:20;8.40;;;4.90;;
2211;SDS011;48849;48.758;9.158;2023-07-09T13:17:01;7.93;;;5.40;;
2211;SDS011;48849;48.758;9.158;2023-07-09T13:19:36;9.67;;;7.20;;
2211;SDS011;48849;48.758;9.158;2023-07-09T13:22:13;8.10;;;6.20;;
2211;SDS011;48849;48.758;9.158;2023-07-09T13:25:09;11.70;;;8.60;;
2211;SDS011;48849;48.758;9.158;2023-07-09T13:28:07;8.40;;;7.40;;
2211;SDS011;48849;48.758;9.158;2023-07-09T13:30:51;12.57;;;10.07;;
2211;SDS011;48849;48.758;9.158;2023-07-09T13:33:21;9.00;;;8.07;;
2211;SDS011;48849;48.758;9.158;2023-07-09T13:35:49;11.63;;;10.27;;
2211;SDS011;48849;48.758;9.158;2023-07-09T13:38:22;8.73;;;5.43;;
2211;SDS011;48849;48.758;9.158;2023-07-09T13:41:01;11.10;;;8.47;;
2211;SDS011;48849;48.758;9.158;2023-07-09T13:43:41;8.10;;;6.90;;
2211;SDS011;48849;48.758;9.158;2023-07-09T13:46:26;12.13;;;10.97;;
2211;SDS011;48849;48.758;9.158;2023-07-09T13:48:55;10.40;;;9.20;;
2211;SDS011;48849;48.758;9.158;2023-07-09T13:51:23;10.80;;;8.80;;
2211;SDS011;48849;48.758;9.158;2023-07-09T13:54:12;8.90;;;6.97;;
2211;SDS011;48849;48.758;9.158;2023-07-09T13:57:00;7.93;;;5.10;;
2211;SDS011;48849;48.758;9.158;2023-07-09T13:59:32;7.20;;;4.73;;
2211;SDS011;48849;48.758;9.158;2023-07-09T14:02:00;8.33;;;5.27;;
2211;SDS011;48849;48.758;9.158;2023-07-09T14:04:40;9.03;;;6.40;;
2211;SDS011;48849;48.758;9.158;2023-07-09T14:07:13;7.70;;;7.00;;
2211;SDS011;48849;48.758;9.158;2023-07-09T14:10:03;10.97;;;5.30;;
2211;SDS011;48849;48.758;9.158;2023-07-09T14:12:41;11.30;;;5.50;;
2211;SDS011;48849;48.758;9.158;2023-07-09T14:15:49;9.00;;;4.90;;
2211;SDS011;48849;48.758;9.158;2023-07-09T14:18:19;6.30;;;4.70;;
2211;SDS011;48849;48.758;9.158;2023-07-09T14:21:05;7.83;;;4.40;;
2211;SDS011;48849;48.758;9.158;2023-07-09T14:23:38;7.73;;;5.17;;
2211;SDS011;48849;48.758;9.158;2023-07-09T14:26:07;4.93;;;4.40;;
2211;SDS011;48849;48.758;9.158;2023-07-09T14:28:34;6.87;;;4.50;;
2211;SDS011;48849;48.758;9.158;2023-07-09T14:31:04;5.47;;;4.30;;
2211;SDS011;48849;48.758;9.158;2023-07-09T14:33:35;8.10;;;4.70;;
2211;SDS011;48849;48.758;9.158;2023-07-09T14:36:02;5.80;;;4.40;;
2211;SDS011;48849;48.758;9.158;2023-07-09T14:38:29;8.77;;;4.27;;
2211;SDS011;48849;48.758;9.158;2023-07-09T14:40:57;5.97;;;4.53;;
2211;SDS011;48849;48.758;9.158;2023-07-09T14:43:29;5.90;;;4.20;;
2211;SDS011;48849;48.758;9.158;2023-07-09T14:45:56;5.53;;;4.07;;
2211;SDS011;48849;48.758;9.158;2023-07-09T14:48:23;7.97;;;4.87;;
2211;SDS011;48849;48.758;9.158;2023-07-09T14:50:50;7.30;;;4.70;;
2211;SDS011;48849;48.758;9.158;2023-07-09T14:53:20;4.30;;;3.90;;
2211;SDS011;48849;48.758;9.158;2023-07-09T14:55:49;6.20;;;4.20;;
2211;SDS011;48849;48.758;9.158;2023-07-09T14:58:19;6.83;;;4.50;;
2211;SDS011;48849;48.758;9.158;2023-07-09T15:00:49;6.87;;;4.30;;
2211;SDS011;48849;48.758;9.158;2023-07-09T15:03:18;4.70;;;3.57;;
2211;SDS011;48849;48.758;9.158;2023-07-09T15:05:47;5.63;;;3.60;;
2211;SDS011;48849;48.758;9.158;2023-07-09T15:08:18;4.43;;;3.77;;
2211;SDS011;48849;48.758;9.158;2023-07-09T15:10:47;6.10;;;4.00;;
2211;SDS011;48849;48.758;9.158;2023-07-09T15:13:16;7.77;;;5.43;;
2211;SDS011;48849;48.758;9.158;2023-07-09T15:15:44;9.03;;;8.13;;
2211;SDS011;48849;48.758;9.158;2023-07-09T15:21:02;5.90;;;5.30;;
2211;SDS011;48849;48.758;9.158;2023-07-09T15:23:30;8.20;;;7.40;;
2211;SDS011;48849;48.758;9.158;2023-07-09T15:25:57;7.10;;;6.40;;
2211;SDS011;48849;48.758;9.158;2023-07-09T15:28:24;10.40;;;8.30;;
2211;SDS011;48849;48.758;9.158;2023-07-09T15:30:54;8.53;;;7.43;;
2211;SDS011;48849;48.758;9.158;2023-07-09T15:33:23;9.70;;;6.03;;
2211;SDS011;48849;48.758;9.158;2023-07-09T15:35:53;7.70;;;5.83;;
2211;SDS011;48849;48.758;9.158;2023-07-09T15:38:27;6.70;;;5.30;;
2211;SDS011;48849;48.758;9.158;2023-07-09T15:40:55;6.23;;;4.67;;
2211;SDS011;48849;48.758;9.158;2023-07-09T15:43:24;7.77;;;6.40;;
2211;SDS011;48849;48.758;9.158;2023-07-09T15:45:58;12.70;;;10.10;;
2211;SDS011;48849;48.758;9.158;2023-07-09T15:48:27;10.30;;;9.20;;
2211;SDS011;48849;48.758;9.158;2023-07-09T15:50:59;10.87;;;7.57;;
2211;SDS011;48849;48.758;9.158;2023-07-09T15:53:27;8.20;;;6.60;;
2211;SDS011;48849;48.758;9.158;2023-07-09T15:55:55;13.87;;;12.47;;